KISO/ISO METAR and TAF weather

Enter ICAO airport designator
Station Type Date Time Source
KISO METAR 2018/12/13 21:56 UTC NOAA

KISO 132156Z 00000KT 10SM CLR 10/04 A3033


Station Type Date Time Source
KISO Decoded METAR 2018/12/13 21:56 UTC NOAA

Kinston, Kinston Regional Jetport at Stallings Field, NC, United States (KISO) 35-20N 077-37W
Dec 13, 2018 - 04:56 PM EST / 2018.12.13 2156 UTC
Wind: Calm:0
Visibility: 10 mile(s):0
Sky conditions: clear
Temperature: 50 F (10 C)
Dew Point: 39 F (4 C)
Relative Humidity: 66%
Pressure (altimeter): 30.33 in. Hg (1027 hPa)
ob: KISO 132156Z 00000KT 10SM CLR 10/04 A3033
cycle: 22

Station Type Date Time Source
KISO TAF 2018/12/13 18:24 UTC NOAA

TAF KISO 131720Z 1318/1418 VRB04KT P6SM BKN200
FM141000 05003KT P6SM BKN080
FM141400 07008KT P6SM VCSH OVC050
AMD LTD TO CLD VIS AND WIND


Example: see airport list